Time;durP1;ratioP1;P1;durP2;ratioP2;P2;SDS_P1;SDS_P2;PMS_P1;PMS_P2;Temp;Humidity;BMP_temperature;BMP_pressure;BME280_temperature;BME280_humidity;BME280_pressure;Samples;Min_cycle;Max_cycle;Signal;HPM_P1;HPM_P2
2023/08/17 00:00:29;;;;;;;6.90;5.28;;;23.10;99.90;;;;;;7400785;19;20130;-79
2023/08/17 00:02:55;;;;;;;8.70;5.20;;;23.00;99.90;;;;;;7402060;19;20135;-79
2023/08/17 00:05:21;;;;;;;6.78;5.10;;;23.00;99.90;;;;;;7401212;19;20126;-80
2023/08/17 00:07:47;;;;;;;6.05;4.82;;;22.90;99.90;;;;;;7398029;19;20153;-80
2023/08/17 00:10:12;;;;;;;5.28;4.75;;;22.90;99.90;;;;;;7394022;19;20138;-80
2023/08/17 00:12:38;;;;;;;6.43;4.90;;;23.00;99.90;;;;;;7395742;19;20154;-81
2023/08/17 00:15:04;;;;;;;5.25;4.55;;;22.90;99.90;;;;;;7392310;19;20141;-80
2023/08/17 00:17:30;;;;;;;5.03;4.63;;;22.60;99.90;;;;;;7393219;19;20134;-80
2023/08/17 00:19:56;;;;;;;6.57;5.03;;;22.70;99.90;;;;;;7390500;19;20242;-79
2023/08/17 00:22:22;;;;;;;5.68;4.07;;;22.80;99.90;;;;;;7394712;19;20493;-79
2023/08/17 00:24:47;;;;;;;6.38;4.50;;;22.90;99.90;;;;;;7391694;19;20170;-80
2023/08/17 00:27:13;;;;;;;5.18;4.50;;;23.00;99.90;;;;;;7393112;19;20138;-80
2023/08/17 00:29:39;;;;;;;5.97;4.53;;;23.00;99.90;;;;;;7393354;19;20202;-82
2023/08/17 00:32:07;;;;;;;5.15;4.57;;;23.00;99.90;;;;;;7394109;19;20214;-80
2023/08/17 00:34:33;;;;;;;5.25;4.38;;;23.00;99.90;;;;;;7391587;19;20638;-80
2023/08/17 00:36:59;;;;;;;4.68;4.20;;;22.90;99.90;;;;;;7394693;19;20130;-80
2023/08/17 00:39:24;;;;;;;6.22;4.47;;;22.90;99.90;;;;;;7394501;19;20504;-80
2023/08/17 00:41:50;;;;;;;6.15;4.88;;;22.90;99.90;;;;;;7392379;19;20134;-81
2023/08/17 00:44:16;;;;;;;6.45;4.22;;;23.00;99.90;;;;;;7393023;19;20165;-81
2023/08/17 00:46:42;;;;;;;4.82;4.00;;;23.00;99.90;;;;;;7392641;19;20137;-81
2023/08/17 00:49:07;;;;;;;5.20;4.65;;;23.00;99.90;;;;;;7393961;19;20127;-81
2023/08/17 00:51:33;;;;;;;5.60;4.43;;;23.00;99.90;;;;;;7392403;19;20154;-81
2023/08/17 00:54:02;;;;;;;10.05;4.22;;;23.00;99.90;;;;;;7393863;19;20126;-81
2023/08/17 00:56:28;;;;;;;5.22;4.35;;;23.00;99.90;;;;;;7392667;19;20133;-80
2023/08/17 00:58:55;;;;;;;5.20;4.15;;;23.00;99.90;;;;;;7392047;19;20499;-81
2023/08/17 01:01:22;;;;;;;6.95;4.18;;;23.00;99.90;;;;;;7390314;19;20189;-80
2023/08/17 01:03:47;;;;;;;5.18;3.67;;;23.00;99.90;;;;;;7392000;19;20157;-80
2023/08/17 01:06:13;;;;;;;6.72;4.13;;;23.00;99.90;;;;;;7392415;19;20150;-80
2023/08/17 01:08:40;;;;;;;5.50;3.90;;;23.00;99.90;;;;;;7392709;19;20139;-80
2023/08/17 01:11:24;;;;;;;4.80;4.28;;;22.90;99.90;;;;;;7393666;19;20218;-81
2023/08/17 01:14:05;;;;;;;5.82;4.07;;;22.90;99.90;;;;;;7394635;19;20139;-80
2023/08/17 01:16:38;;;;;;;5.25;4.45;;;22.80;99.90;;;;;;7392494;19;20137;-81
2023/08/17 01:19:09;;;;;;;5.43;3.95;;;22.90;99.90;;;;;;7392244;19;20154;-81
2023/08/17 01:21:43;;;;;;;5.90;4.57;;;23.00;99.90;;;;;;7391511;19;20151;-81
2023/08/17 01:24:11;;;;;;;8.98;6.55;;;22.90;99.90;;;;;;7394400;19;20197;-80
2023/08/17 01:26:37;;;;;;;6.18;4.70;;;22.90;99.90;;;;;;7392191;19;20138;-81
2023/08/17 01:29:04;;;;;;;6.47;4.68;;;22.90;99.90;;;;;;7392322;19;20469;-80
2023/08/17 01:31:34;;;;;;;7.90;5.00;;;23.00;99.90;;;;;;7391604;19;20165;-82
2023/08/17 01:34:10;;;;;;;4.20;3.80;;;23.00;99.90;;;;;;7393586;19;20199;-81
2023/08/17 01:36:41;;;;;;;6.13;4.57;;;23.00;99.90;;;;;;7393389;19;20130;-80
2023/08/17 01:39:09;;;;;;;6.85;5.50;;;23.00;99.90;;;;;;7392728;19;20139;-80
2023/08/17 01:41:37;;;;;;;9.98;5.90;;;22.90;99.90;;;;;;7391658;19;20226;-81
2023/08/17 01:44:04;;;;;;;8.65;5.65;;;22.90;99.90;;;;;;7390836;19;20491;-80
2023/08/17 01:46:34;;;;;;;8.30;5.97;;;22.80;99.90;;;;;;7389714;19;20448;-79
2023/08/17 01:49:00;;;;;;;8.52;5.90;;;22.70;99.90;;;;;;7392386;19;20127;-81
2023/08/17 01:51:26;;;;;;;8.55;7.00;;;22.70;99.90;;;;;;7392628;19;20210;-81
2023/08/17 01:53:52;;;;;;;9.07;7.10;;;22.80;99.90;;;;;;7390133;19;20488;-81
2023/08/17 01:56:18;;;;;;;7.47;6.10;;;22.70;99.90;;;;;;7392861;19;20161;-81
2023/08/17 01:58:44;;;;;;;6.63;5.35;;;22.40;99.90;;;;;;7390767;19;20147;-81
2023/08/17 02:01:10;;;;;;;7.85;5.38;;;22.70;99.90;;;;;;7392925;19;20135;-80
2023/08/17 02:03:36;;;;;;;7.93;5.60;;;22.80;99.90;;;;;;7389917;19;20229;-80
2023/08/17 02:06:02;;;;;;;7.25;6.03;;;22.90;99.90;;;;;;7392069;19;20618;-79
2023/08/17 02:08:28;;;;;;;10.80;5.90;;;22.80;99.90;;;;;;7389658;19;20626;-81
2023/08/17 02:10:53;;;;;;;9.10;5.97;;;22.80;99.90;;;;;;7390180;19;20141;-82
2023/08/17 02:13:19;;;;;;;6.35;5.25;;;22.80;99.90;;;;;;7388619;19;20166;-81
2023/08/17 02:15:46;;;;;;;7.47;5.35;;;22.80;99.90;;;;;;7386916;19;20265;-82
2023/08/17 02:18:12;;;;;;;6.78;5.10;;;22.80;99.90;;;;;;7390260;19;20616;-81
2023/08/17 02:20:38;;;;;;;6.93;4.95;;;22.80;99.90;;;;;;7391211;19;20146;-80
2023/08/17 02:23:03;;;;;;;10.50;5.53;;;22.80;99.90;;;;;;7392167;19;20138;-81
2023/08/17 02:25:35;;;;;;;7.05;5.05;;;22.90;99.90;;;;;;7389986;19;20190;-80
2023/08/17 02:28:02;;;;;;;4.80;4.30;;;22.80;99.90;;;;;;7387439;19;20127;-80
2023/08/17 02:30:29;;;;;;;6.18;4.32;;;22.90;99.90;;;;;;7390721;19;20157;-81
2023/08/17 02:32:55;;;;;;;9.27;5.93;;;22.90;99.90;;;;;;7387330;19;20176;-81
2023/08/17 02:35:21;;;;;;;8.57;6.20;;;22.90;99.90;;;;;;7390514;19;20142;-81
2023/08/17 02:37:46;;;;;;;9.02;6.95;;;22.90;99.90;;;;;;7388997;19;20139;-81
2023/08/17 02:40:12;;;;;;;10.65;7.00;;;22.90;99.90;;;;;;7391077;19;20581;-82
2023/08/17 02:42:39;;;;;;;10.43;6.82;;;22.80;99.90;;;;;;7390030;19;20135;-81
2023/08/17 02:45:06;;;;;;;8.38;6.03;;;22.80;99.90;;;;;;7390779;19;20153;-81
2023/08/17 02:47:32;;;;;;;8.30;6.57;;;22.80;99.90;;;;;;7388040;19;20139;-81
2023/08/17 02:49:58;;;;;;;8.73;6.88;;;22.80;99.90;;;;;;7389298;19;20161;-81
2023/08/17 02:52:24;;;;;;;8.35;6.38;;;22.80;99.90;;;;;;7389026;19;20144;-81
2023/08/17 02:54:50;;;;;;;9.45;7.10;;;22.80;99.90;;;;;;7389699;19;20473;-81
2023/08/17 02:57:15;;;;;;;9.25;6.78;;;22.90;99.90;;;;;;7390826;19;20134;-81
2023/08/17 02:59:41;;;;;;;9.07;7.15;;;22.90;99.90;;;;;;7390573;19;20161;-81
2023/08/17 03:02:07;;;;;;;14.02;7.70;;;22.80;99.90;;;;;;7389101;19;20131;-82
2023/08/17 03:04:33;;;;;;;9.60;7.03;;;22.80;99.90;;;;;;7387367;19;20500;-81
2023/08/17 03:06:59;;;;;;;9.27;7.32;;;22.80;99.90;;;;;;7387203;19;20142;-81
2023/08/17 03:09:24;;;;;;;9.75;7.53;;;22.90;99.90;;;;;;7388441;19;20496;-80
2023/08/17 03:11:53;;;;;;;11.30;7.40;;;22.80;99.90;;;;;;7388428;19;20145;-81
2023/08/17 03:14:18;;;;;;;12.05;7.35;;;22.70;99.90;;;;;;7389180;19;20135;-82
2023/08/17 03:16:44;;;;;;;9.65;7.07;;;22.70;99.90;;;;;;7389052;19;20134;-79
2023/08/17 03:19:11;;;;;;;8.40;6.28;;;22.70;99.90;;;;;;7389813;19;20164;-80
2023/08/17 03:21:37;;;;;;;8.60;6.03;;;22.70;99.90;;;;;;7388691;19;20143;-80
2023/08/17 03:24:03;;;;;;;6.97;5.57;;;22.80;99.90;;;;;;7388999;19;20170;-80
2023/08/17 03:26:29;;;;;;;9.32;5.82;;;22.80;99.90;;;;;;7389696;19;20481;-81
2023/08/17 03:28:55;;;;;;;7.57;5.90;;;22.80;99.90;;;;;;7387745;19;20151;-79
2023/08/17 03:31:21;;;;;;;8.02;5.75;;;22.80;99.90;;;;;;7390850;19;20135;-80
2023/08/17 03:33:49;;;;;;;10.02;6.13;;;22.70;99.90;;;;;;7387999;19;20130;-80
2023/08/17 03:36:15;;;;;;;7.90;6.03;;;22.70;99.90;;;;;;7388150;19;20521;-80
2023/08/17 03:38:41;;;;;;;8.30;5.80;;;22.80;99.90;;;;;;7388362;19;20168;-81
2023/08/17 03:41:07;;;;;;;6.13;5.32;;;22.80;99.90;;;;;;7389957;19;20148;-81
2023/08/17 03:43:33;;;;;;;8.13;5.82;;;22.80;99.90;;;;;;7392657;19;20544;-82
2023/08/17 03:45:59;;;;;;;5.95;5.35;;;22.80;99.90;;;;;;7395823;19;20154;-80
2023/08/17 03:48:25;;;;;;;7.25;5.72;;;22.80;99.90;;;;;;7392722;19;20612;-81
2023/08/17 03:50:52;;;;;;;6.63;5.68;;;22.70;99.90;;;;;;7394596;19;20448;-80
2023/08/17 03:53:18;;;;;;;7.03;5.97;;;22.60;99.90;;;;;;7394854;19;20210;-81
2023/08/17 03:55:48;;;;;;;8.13;6.28;;;22.70;99.90;;;;;;7394907;19;20154;-82
2023/08/17 03:58:14;;;;;;;6.30;5.57;;;22.70;99.90;;;;;;7395678;19;20127;-82
2023/08/17 04:00:40;;;;;;;6.45;5.82;;;22.70;99.90;;;;;;7394769;19;20164;-81
2023/08/17 04:03:06;;;;;;;7.07;6.10;;;22.80;99.90;;;;;;7394476;19;20599;-81
2023/08/17 04:05:32;;;;;;;20.48;6.28;;;22.80;99.90;;;;;;7394622;19;20150;-80
2023/08/17 04:08:02;;;;;;;6.72;6.03;;;22.80;99.90;;;;;;7393566;19;20583;-81
2023/08/17 04:10:29;;;;;;;7.20;6.25;;;22.80;99.90;;;;;;7395730;19;20134;-81
2023/08/17 04:12:58;;;;;;;7.22;5.95;;;22.80;99.90;;;;;;7393394;19;20152;-80
2023/08/17 04:15:24;;;;;;;8.80;6.20;;;22.80;99.90;;;;;;7393847;19;20222;-81
2023/08/17 04:17:50;;;;;;;8.32;6.18;;;22.80;99.90;;;;;;7393955;19;20559;-81
2023/08/17 04:20:16;;;;;;;11.70;7.38;;;22.80;99.90;;;;;;7393748;19;20586;-81
2023/08/17 04:22:41;;;;;;;8.85;6.47;;;22.90;99.90;;;;;;7394007;19;20146;-81
2023/08/17 04:25:07;;;;;;;9.57;6.90;;;22.80;99.90;;;;;;7396459;19;20135;-81
2023/08/17 04:27:33;;;;;;;6.70;5.82;;;22.70;99.90;;;;;;7390975;19;20222;-81
2023/08/17 04:30:00;;;;;;;8.57;6.68;;;22.80;99.90;;;;;;7394215;19;20137;-80
2023/08/17 04:32:26;;;;;;;7.63;6.15;;;22.70;99.90;;;;;;7394857;19;20145;-81
2023/08/17 04:34:51;;;;;;;8.85;6.72;;;22.70;99.90;;;;;;7393536;19;20150;-81
2023/08/17 04:37:17;;;;;;;8.38;6.47;;;22.80;99.90;;;;;;7394235;19;20575;-79
2023/08/17 04:39:43;;;;;;;9.68;6.68;;;22.80;99.90;;;;;;7393074;19;20592;-81
2023/08/17 04:42:10;;;;;;;9.93;7.13;;;22.80;99.90;;;;;;7392286;19;20135;-81
2023/08/17 04:44:35;;;;;;;8.00;6.97;;;22.80;99.90;;;;;;7392585;19;20134;-80
2023/08/17 04:47:01;;;;;;;8.02;7.05;;;22.80;99.90;;;;;;7392887;19;20127;-80
2023/08/17 04:49:27;;;;;;;10.75;7.55;;;22.80;99.90;;;;;;7392573;19;20135;-81
2023/08/17 04:51:53;;;;;;;8.40;6.63;;;22.80;99.90;;;;;;7392905;19;20135;-79
2023/08/17 04:54:19;;;;;;;8.25;6.80;;;22.80;99.90;;;;;;7389640;19;20142;-78
2023/08/17 04:56:45;;;;;;;8.80;7.30;;;22.80;99.90;;;;;;7393503;19;20145;-78
2023/08/17 04:59:11;;;;;;;8.35;7.10;;;22.90;99.90;;;;;;7391034;19;20141;-78
2023/08/17 05:01:37;;;;;;;10.13;7.57;;;22.90;99.90;;;;;;7391278;19;20138;-79
2023/08/17 05:04:03;;;;;;;11.18;9.25;;;22.90;99.90;;;;;;7389652;19;20173;-83
2023/08/17 05:06:29;;;;;;;11.02;7.88;;;22.80;99.90;;;;;;7391088;19;20139;-83
2023/08/17 05:08:56;;;;;;;11.10;8.32;;;22.60;99.90;;;;;;7391563;19;20135;-84
2023/08/17 05:11:22;;;;;;;11.07;8.27;;;22.60;99.90;;;;;;7395347;19;20590;-83
2023/08/17 05:13:48;;;;;;;9.32;8.05;;;22.60;99.90;;;;;;7392657;19;20142;-82
2023/08/17 05:16:14;;;;;;;9.50;7.68;;;22.70;99.90;;;;;;7391950;19;20198;-82
2023/08/17 05:18:40;;;;;;;10.52;7.75;;;22.70;99.90;;;;;;7394242;19;20131;-83
2023/08/17 05:21:06;;;;;;;7.70;6.90;;;22.70;99.90;;;;;;7390451;19;20157;-83
2023/08/17 05:23:32;;;;;;;8.85;7.53;;;22.80;99.90;;;;;;7393506;19;20206;-83
2023/08/17 05:25:58;;;;;;;9.68;6.93;;;22.80;99.90;;;;;;7392023;19;20505;-83
2023/08/17 05:28:24;;;;;;;8.10;7.28;;;22.80;99.90;;;;;;7388284;19;20147;-83
2023/08/17 05:30:50;;;;;;;10.35;7.72;;;22.90;99.90;;;;;;7391192;19;20172;-83
2023/08/17 05:33:15;;;;;;;10.02;7.50;;;22.80;99.90;;;;;;7392093;19;20191;-84
2023/08/17 05:35:42;;;;;;;10.70;7.68;;;22.80;99.90;;;;;;7391086;19;20143;-82
2023/08/17 05:38:09;;;;;;;9.13;7.72;;;22.70;99.90;;;;;;7390089;19;20889;-83
2023/08/17 05:40:35;;;;;;;11.18;8.00;;;22.70;99.90;;;;;;7389665;19;20169;-84
2023/08/17 05:43:01;;;;;;;16.42;7.60;;;22.70;99.90;;;;;;7390045;19;20134;-85
2023/08/17 05:45:27;;;;;;;9.50;7.97;;;22.70;99.90;;;;;;7390762;19;20142;-84
2023/08/17 05:47:53;;;;;;;12.02;7.65;;;22.70;99.90;;;;;;7388481;19;20138;-84
2023/08/17 05:50:18;;;;;;;10.60;9.00;;;22.70;99.90;;;;;;7389829;19;20154;-84
2023/08/17 05:52:44;;;;;;;10.68;7.35;;;22.70;99.90;;;;;;7393015;19;20138;-80
2023/08/17 05:55:11;;;;;;;8.60;7.07;;;22.80;99.90;;;;;;7391162;19;20167;-82
2023/08/17 05:57:38;;;;;;;9.23;7.03;;;22.90;99.90;;;;;;7390284;19;20142;-79
2023/08/17 06:00:05;;;;;;;12.15;8.27;;;23.00;99.90;;;;;;7389092;19;20147;-79
2023/08/17 06:02:31;;;;;;;9.57;7.82;;;23.00;99.90;;;;;;7389092;19;20154;-80
2023/08/17 06:04:56;;;;;;;10.27;7.43;;;23.00;99.90;;;;;;7385554;19;20250;-80
2023/08/17 06:07:22;;;;;;;11.23;8.15;;;23.00;99.90;;;;;;7388153;19;20143;-80
2023/08/17 06:09:48;;;;;;;10.88;7.22;;;23.10;99.90;;;;;;7386576;19;20597;-79
2023/08/17 06:12:14;;;;;;;9.13;7.50;;;23.10;99.90;;;;;;7388380;19;20153;-79
2023/08/17 06:14:40;;;;;;;8.13;6.93;;;23.10;99.90;;;;;;7378825;19;20202;-78
2023/08/17 06:17:05;;;;;;;8.85;7.10;;;23.10;99.90;;;;;;7382485;19;20611;-80
2023/08/17 06:19:31;;;;;;;9.75;7.65;;;23.20;99.90;;;;;;7389180;19;20143;-80
2023/08/17 06:21:57;;;;;;;10.68;8.68;;;23.20;99.90;;;;;;7388983;19;20461;-79
2023/08/17 06:24:23;;;;;;;10.35;7.80;;;23.20;99.90;;;;;;7385132;19;20218;-79
2023/08/17 06:26:48;;;;;;;11.73;7.72;;;23.10;99.90;;;;;;7383993;19;20142;-80
2023/08/17 06:29:15;;;;;;;9.63;8.02;;;23.00;99.90;;;;;;7391393;19;20148;-80
2023/08/17 06:31:41;;;;;;;9.63;7.70;;;23.10;99.90;;;;;;7389609;19;20497;-80
2023/08/17 06:34:07;;;;;;;11.20;7.53;;;23.10;99.90;;;;;;7388150;19;20146;-80
2023/08/17 06:36:33;;;;;;;10.02;7.00;;;23.10;99.90;;;;;;7389583;19;20579;-80
2023/08/17 06:38:59;;;;;;;8.70;7.57;;;23.10;99.90;;;;;;7387321;19;20183;-80
2023/08/17 06:41:25;;;;;;;9.20;7.55;;;23.10;99.90;;;;;;7389780;19;20590;-80
2023/08/17 06:43:51;;;;;;;12.45;8.65;;;23.10;99.90;;;;;;7389018;19;20138;-77
2023/08/17 06:46:17;;;;;;;16.17;9.48;;;23.10;99.90;;;;;;7388039;19;20154;-76
2023/08/17 06:48:43;;;;;;;9.05;7.20;;;23.20;99.90;;;;;;7387262;19;20157;-77
2023/08/17 06:51:09;;;;;;;11.05;8.93;;;23.20;99.90;;;;;;7389168;19;20210;-77
2023/08/17 06:53:35;;;;;;;10.55;8.98;;;23.20;99.90;;;;;;7387620;19;20154;-78
2023/08/17 06:56:01;;;;;;;11.32;9.07;;;23.00;99.90;;;;;;7389170;19;20134;-77
2023/08/17 06:58:27;;;;;;;10.23;8.45;;;23.10;99.90;;;;;;7388456;19;20139;-76
2023/08/17 07:00:52;;;;;;;11.32;9.18;;;23.20;99.90;;;;;;7384573;19;20582;-76
2023/08/17 07:03:18;;;;;;;10.25;8.05;;;23.30;99.90;;;;;;7381734;19;20173;-77
2023/08/17 07:05:44;;;;;;;9.68;8.10;;;23.20;99.90;;;;;;7386269;19;20150;-76
2023/08/17 07:08:10;;;;;;;12.40;8.63;;;23.20;99.90;;;;;;7384855;19;20281;-75
2023/08/17 07:10:39;;;;;;;9.80;8.50;;;23.40;99.90;;;;;;7387516;19;20217;-76
2023/08/17 07:13:05;;;;;;;10.32;7.88;;;23.60;99.90;;;;;;7388037;19;20142;-77
2023/08/17 07:15:31;;;;;;;9.65;7.05;;;24.30;99.90;;;;;;7380728;19;20147;-76
2023/08/17 07:17:57;;;;;;;9.25;6.80;;;25.00;99.90;;;;;;7382174;19;20667;-76
2023/08/17 07:20:23;;;;;;;10.38;7.47;;;25.20;99.90;;;;;;7393595;19;20146;-76
2023/08/17 07:22:49;;;;;;;10.80;7.25;;;25.60;99.90;;;;;;7392083;19;20131;-76
2023/08/17 07:25:14;;;;;;;8.57;7.50;;;25.90;99.90;;;;;;7394034;19;20175;-78
2023/08/17 07:27:42;;;;;;;7.88;6.90;;;26.10;99.90;;;;;;7394214;19;20138;-79
2023/08/17 07:30:09;;;;;;;7.32;6.05;;;26.10;99.90;;;;;;7395453;19;20131;-85
2023/08/17 07:32:34;;;;;;;7.85;6.47;;;26.50;99.90;;;;;;7394879;19;20151;-81
2023/08/17 07:35:00;;;;;;;6.13;5.53;;;27.00;99.90;;;;;;7395792;19;20153;-80
2023/08/17 07:37:32;;;;;;;7.70;6.30;;;27.20;99.90;;;;;;7392940;19;20134;-80
2023/08/17 07:39:59;;;;;;;7.80;5.97;;;27.40;99.90;;;;;;7393399;19;20215;-81
2023/08/17 07:42:25;;;;;;;7.55;6.38;;;27.40;99.90;;;;;;7392861;19;20162;-81
2023/08/17 07:44:50;;;;;;;8.07;6.32;;;27.20;99.90;;;;;;7392942;19;20151;-81
2023/08/17 07:47:16;;;;;;;9.80;6.40;;;26.90;99.90;;;;;;7391858;19;20159;-79
2023/08/17 07:49:42;;;;;;;6.07;5.13;;;27.10;99.90;;;;;;7394671;19;20147;-81
2023/08/17 07:52:08;;;;;;;8.30;5.90;;;27.20;99.90;;;;;;7392991;19;20142;-81
2023/08/17 07:54:34;;;;;;;6.57;5.97;;;27.20;99.90;;;;;;7393247;19;20209;-80
2023/08/17 07:57:00;;;;;;;9.45;6.20;;;27.00;99.90;;;;;;7392720;19;20159;-81
2023/08/17 07:59:26;;;;;;;10.45;6.72;;;27.00;99.90;;;;;;7394780;19;20649;-80
2023/08/17 08:01:54;;;;;;;7.97;6.88;;;26.80;99.90;;;;;;7392174;19;20147;-80
2023/08/17 08:04:22;;;;;;;7.45;6.28;;;26.40;99.90;;;;;;7391714;19;20261;-81
2023/08/17 08:06:48;;;;;;;9.35;7.45;;;26.50;99.90;;;;;;7390933;19;20608;-81
2023/08/17 08:09:14;;;;;;;7.70;6.13;;;26.70;99.90;;;;;;7393595;19;20151;-81
2023/08/17 08:11:40;;;;;;;9.13;6.38;;;26.80;99.90;;;;;;7391797;19;20143;-79
2023/08/17 08:14:06;;;;;;;6.90;5.88;;;27.30;99.90;;;;;;7393120;19;20687;-80
2023/08/17 08:16:31;;;;;;;7.32;6.57;;;27.60;99.90;;;;;;7393927;19;20131;-80
2023/08/17 08:18:57;;;;;;;6.78;5.93;;;27.70;99.90;;;;;;7393387;19;20138;-80
2023/08/17 08:21:23;;;;;;;8.23;6.40;;;27.80;99.90;;;;;;7391744;19;20138;-81
2023/08/17 08:23:49;;;;;;;10.00;6.88;;;28.00;99.90;;;;;;7392515;19;20221;-79
2023/08/17 08:26:15;;;;;;;8.73;7.10;;;27.80;99.90;;;;;;7392640;19;20595;-80
2023/08/17 08:28:40;;;;;;;7.25;6.07;;;27.80;99.90;;;;;;7388740;19;20218;-80
2023/08/17 08:31:06;;;;;;;7.88;6.25;;;27.70;99.90;;;;;;7389714;19;20598;-81
2023/08/17 08:33:32;;;;;;;8.93;6.53;;;27.40;99.90;;;;;;7393640;19;20504;-80
2023/08/17 08:35:57;;;;;;;6.97;6.30;;;27.30;99.90;;;;;;7392127;19;20145;-79
2023/08/17 08:38:24;;;;;;;7.40;6.15;;;27.50;99.90;;;;;;7391845;19;20165;-82
2023/08/17 08:40:51;;;;;;;7.90;6.50;;;27.60;99.90;;;;;;7390631;19;20157;-79
2023/08/17 08:43:17;;;;;;;7.32;6.30;;;27.20;99.90;;;;;;7390466;19;20151;-80
2023/08/17 08:45:47;;;;;;;7.65;6.88;;;26.90;99.90;;;;;;7392148;19;20153;-80
2023/08/17 08:48:15;;;;;;;9.75;7.72;;;27.00;99.90;;;;;;7388560;19;20135;-82
2023/08/17 08:50:41;;;;;;;8.13;6.55;;;26.80;99.90;;;;;;7385054;19;20138;-82
2023/08/17 08:53:13;;;;;;;8.82;7.40;;;26.50;99.90;;;;;;7390851;19;20138;-79
2023/08/17 08:55:47;;;;;;;10.10;6.47;;;26.30;99.90;;;;;;7391085;19;20141;-79
2023/08/17 08:58:15;;;;;;;10.73;6.55;;;26.50;99.90;;;;;;7392168;19;20134;-80
2023/08/17 09:00:42;;;;;;;8.82;6.32;;;26.80;99.90;;;;;;7387274;19;20157;-81
2023/08/17 09:03:09;;;;;;;8.13;6.82;;;27.00;99.90;;;;;;7387609;19;20928;-82
2023/08/17 09:05:36;;;;;;;6.50;5.80;;;27.30;99.90;;;;;;7393217;19;20131;-81
2023/08/17 09:08:03;;;;;;;8.23;7.13;;;27.40;99.90;;;;;;7389597;19;20142;-84
2023/08/17 09:10:29;;;;;;;7.60;6.80;;;27.00;99.90;;;;;;7393050;19;20157;-80
2023/08/17 09:12:55;;;;;;;7.90;7.00;;;26.80;99.90;;;;;;7391780;19;20206;-82
2023/08/17 09:15:20;;;;;;;8.90;6.38;;;26.70;99.90;;;;;;7392211;19;20142;-82
2023/08/17 09:17:48;;;;;;;6.72;5.95;;;26.80;99.90;;;;;;7391497;19;20153;-82
2023/08/17 09:20:41;;;;;;;11.38;7.63;;;26.90;99.90;;;;;;7390919;19;20194;-82
2023/08/17 09:23:15;;;;;;;8.48;6.78;;;27.00;99.90;;;;;;7385678;19;20130;-82
2023/08/17 09:25:44;;;;;;;8.00;6.22;;;26.80;99.90;;;;;;7390661;19;20170;-82
2023/08/17 09:28:12;;;;;;;9.32;6.28;;;26.80;99.90;;;;;;7389168;19;20198;-81
2023/08/17 09:30:54;;;;;;;8.82;7.30;;;26.60;99.90;;;;;;7391043;19;20146;-80
2023/08/17 09:33:25;;;;;;;7.60;6.47;;;26.80;99.90;;;;;;7391434;19;20258;-82
2023/08/17 09:35:52;;;;;;;8.65;6.28;;;27.10;99.90;;;;;;7390020;19;20131;-79
2023/08/17 09:38:19;;;;;;;8.32;6.85;;;27.10;99.90;;;;;;7389391;19;20140;-80
2023/08/17 09:40:46;;;;;;;9.20;7.63;;;27.20;99.90;;;;;;7387676;19;20160;-81
2023/08/17 09:43:13;;;;;;;11.60;7.38;;;27.20;99.90;;;;;;7393328;19;20126;-80
2023/08/17 09:45:39;;;;;;;12.98;8.80;;;27.20;99.90;;;;;;7390612;19;20134;-80
2023/08/17 09:48:08;;;;;;;8.75;7.80;;;27.00;99.90;;;;;;7388337;19;20586;-80
2023/08/17 09:50:35;;;;;;;9.65;8.13;;;26.80;99.90;;;;;;7391071;19;20215;-80
2023/08/17 09:53:03;;;;;;;10.90;6.78;;;26.50;99.90;;;;;;7388995;19;20595;-80
2023/08/17 09:55:32;;;;;;;8.43;6.93;;;26.50;99.90;;;;;;7393105;19;20475;-80
2023/08/17 09:58:00;;;;;;;9.30;7.07;;;26.60;99.90;;;;;;7392255;19;20583;-81
2023/08/17 10:00:27;;;;;;;11.43;8.48;;;26.80;99.90;;;;;;7390445;19;20512;-78
2023/08/17 10:02:53;;;;;;;9.45;7.25;;;26.90;99.90;;;;;;7390983;19;20134;-80
2023/08/17 10:05:20;;;;;;;8.75;7.82;;;27.10;99.90;;;;;;7387063;19;20151;-81
2023/08/17 10:07:56;;;;;;;12.18;7.50;;;27.10;99.90;;;;;;7389871;19;20607;-80
2023/08/17 10:10:26;;;;;;;9.60;8.00;;;27.30;99.90;;;;;;7384187;19;20166;-80
2023/08/17 10:13:07;;;;;;;9.15;7.20;;;27.40;99.90;;;;;;7388334;19;20135;-81
2023/08/17 10:15:38;;;;;;;8.38;6.80;;;27.30;99.90;;;;;;7384246;19;20142;-82
2023/08/17 10:18:12;;;;;;;8.20;7.32;;;27.20;99.90;;;;;;7390127;19;20562;-80
2023/08/17 10:20:44;;;;;;;9.10;7.38;;;26.90;99.90;;;;;;7386439;19;20146;-81
2023/08/17 10:23:23;;;;;;;11.43;8.20;;;26.80;99.90;;;;;;7389674;19;20225;-80
2023/08/17 10:25:50;;;;;;;9.20;6.47;;;26.80;99.90;;;;;;7387931;19;20486;-80
2023/08/17 10:28:17;;;;;;;9.43;6.60;;;26.90;99.90;;;;;;7389434;19;20165;-81
2023/08/17 10:30:43;;;;;;;7.30;5.85;;;27.20;99.90;;;;;;7389189;19;20138;-81
2023/08/17 10:33:19;;;;;;;9.05;6.97;;;27.50;99.90;;;;;;7388465;19;20158;-81
2023/08/17 10:35:46;;;;;;;9.13;8.15;;;27.60;99.90;;;;;;7388491;19;20167;-81
2023/08/17 10:38:12;;;;;;;9.70;7.28;;;27.50;99.90;;;;;;7388899;19;20150;-82
2023/08/17 10:40:41;;;;;;;9.73;7.22;;;27.60;99.90;;;;;;7390523;19;20135;-81
2023/08/17 10:43:07;;;;;;;8.93;6.97;;;27.70;99.90;;;;;;7391956;19;20135;-81
2023/08/17 10:45:34;;;;;;;6.82;6.13;;;27.70;99.90;;;;;;7388961;19;20483;-81
2023/08/17 10:48:27;;;;;;;8.75;6.38;;;27.70;99.90;;;;;;7388401;19;20130;-79
2023/08/17 10:51:02;;;;;;;10.07;8.05;;;27.80;99.90;;;;;;7387968;19;20160;-82
2023/08/17 10:53:34;;;;;;;8.52;7.40;;;27.90;99.90;;;;;;7384660;19;20649;-81
2023/08/17 10:56:00;;;;;;;9.75;7.65;;;27.90;99.90;;;;;;7390090;19;20171;-81
2023/08/17 10:58:30;;;;;;;8.70;6.90;;;27.80;99.90;;;;;;7389908;19;20143;-80
2023/08/17 11:00:56;;;;;;;9.27;6.72;;;27.70;99.90;;;;;;7388738;19;20218;-81
2023/08/17 11:03:23;;;;;;;8.30;7.05;;;27.70;99.90;;;;;;7386259;19;20214;-81
2023/08/17 11:05:53;;;;;;;12.27;7.55;;;27.60;99.90;;;;;;7390262;19;20157;-82
2023/08/17 11:08:33;;;;;;;11.32;7.57;;;27.60;99.90;;;;;;7384777;19;20134;-81
2023/08/17 11:11:03;;;;;;;7.95;6.72;;;27.70;99.90;;;;;;7388456;19;20189;-81
2023/08/17 11:13:37;;;;;;;7.57;5.57;;;27.80;99.90;;;;;;7386886;19;20150;-81
2023/08/17 11:16:04;;;;;;;5.93;5.28;;;27.90;99.90;;;;;;7391542;19;20456;-82
2023/08/17 11:18:31;;;;;;;8.52;6.28;;;28.10;99.90;;;;;;7389254;19;20165;-81
2023/08/17 11:20:58;;;;;;;7.13;5.63;;;28.30;99.90;;;;;;7389850;19;20217;-80
2023/08/17 11:23:24;;;;;;;6.47;5.57;;;28.40;99.90;;;;;;7388461;19;20138;-81
2023/08/17 11:25:52;;;;;;;7.07;6.38;;;28.50;99.90;;;;;;7391256;19;20239;-81
2023/08/17 11:28:18;;;;;;;7.57;6.57;;;28.70;99.90;;;;;;7396926;19;20119;-82
2023/08/17 11:30:44;;;;;;;9.40;6.93;;;28.70;99.90;;;;;;7394587;19;20497;-82
2023/08/17 11:33:10;;;;;;;9.68;6.72;;;28.50;99.90;;;;;;7394564;19;20477;-81
2023/08/17 11:35:37;;;;;;;7.47;5.82;;;28.20;99.90;;;;;;7389847;19;20148;-82
2023/08/17 11:38:03;;;;;;;6.50;5.85;;;28.10;99.90;;;;;;7390842;19;20127;-81
2023/08/17 11:40:30;;;;;;;6.63;6.00;;;28.10;99.90;;;;;;7396626;19;20131;-82
2023/08/17 11:42:56;;;;;;;8.38;6.18;;;28.20;99.90;;;;;;7397893;19;20173;-82
2023/08/17 11:45:23;;;;;;;8.57;6.05;;;28.30;99.90;;;;;;7401400;19;20478;-82
2023/08/17 11:47:49;;;;;;;7.53;5.90;;;28.50;99.90;;;;;;7394121;19;20274;-82
2023/08/17 11:50:15;;;;;;;10.15;7.05;;;28.50;99.90;;;;;;7397343;19;20151;-79
2023/08/17 11:52:41;;;;;;;7.72;6.78;;;28.70;99.90;;;;;;7388488;19;20134;-81
2023/08/17 11:55:11;;;;;;;7.03;6.32;;;28.60;99.90;;;;;;7390623;19;20126;-82
2023/08/17 11:57:38;;;;;;;6.20;5.60;;;28.50;99.90;;;;;;7391322;19;20150;-80
2023/08/17 12:00:12;;;;;;;6.25;5.57;;;28.50;99.90;;;;;;7392140;19;20138;-82
2023/08/17 12:02:42;;;;;;;8.93;5.88;;;28.40;99.90;;;;;;7392354;19;20570;-81
2023/08/17 12:05:09;;;;;;;9.65;5.53;;;28.40;99.90;;;;;;7389651;19;20178;-81
2023/08/17 12:07:35;;;;;;;5.60;5.07;;;28.40;99.90;;;;;;7391746;19;20164;-80
2023/08/17 12:10:04;;;;;;;5.85;4.75;;;28.40;99.90;;;;;;7391624;19;20155;-80
2023/08/17 12:12:30;;;;;;;6.32;5.30;;;28.30;99.90;;;;;;7393545;19;20154;-80
2023/08/17 12:14:58;;;;;;;4.43;4.03;;;28.40;99.90;;;;;;7392702;19;20146;-79
2023/08/17 12:17:24;;;;;;;6.82;4.82;;;28.40;99.90;;;;;;7393381;19;20139;-80
2023/08/17 12:19:55;;;;;;;6.20;5.60;;;28.60;99.90;;;;;;7395197;19;20153;-81
2023/08/17 12:22:24;;;;;;;7.82;6.25;;;28.70;99.90;;;;;;7396568;19;20130;-80
2023/08/17 12:24:49;;;;;;;6.50;5.50;;;28.70;99.90;;;;;;7395759;19;20545;-80
2023/08/17 12:27:15;;;;;;;7.43;6.05;;;28.50;99.90;;;;;;7396014;19;20130;-80
2023/08/17 12:29:51;;;;;;;6.88;6.18;;;28.50;99.90;;;;;;7396829;19;20130;-79
2023/08/17 12:32:20;;;;;;;7.13;6.43;;;28.30;99.90;;;;;;7396348;19;20123;-80
2023/08/17 12:34:47;;;;;;;8.07;6.43;;;28.30;99.90;;;;;;7392719;19;20131;-80
2023/08/17 12:37:20;;;;;;;7.45;6.65;;;28.20;99.90;;;;;;7395727;19;20142;-80
2023/08/17 12:39:47;;;;;;;6.78;6.13;;;28.10;99.90;;;;;;7395173;19;20126;-80
2023/08/17 12:42:13;;;;;;;9.43;7.53;;;28.00;99.90;;;;;;7392212;19;20127;-81
2023/08/17 12:44:39;;;;;;;10.63;8.25;;;28.00;99.90;;;;;;7396194;19;20138;-81